KFMM

Fort Morgan Municipal Airport

Fort Morgan, Colorado, USA
METAR KFMM 141315Z AUTO 03003KT 10SM CLR 16/15 A3010 RMK AO2 T01570145
Observed Flight Rules
Aug-14 @ 13:15 UTC (28 minutes ago) Visual Flight Rules
Wind Visibility Clouds
30° at 3 knots 10 miles
  • Clear skies
Temperatures Readings
Current 16°C / 61°F
Dewpoint 15°C / 59°F
Humidity 94%
Altimeter 30.1" Hg
Pressure 1019 hPa
Elevation 1393
METAR KFMM 141315Z AUTO 03003KT 10SM CLR 16/15 A3010 RMK AO2 T01570145
Observed Flight Rules
Aug-14 @ 13:15 UTC
(28 minutes ago)
VFR
Wind Visibility
30° at 3 knots 10 miles
Clouds
  • Clear skies
Temperature Dewpoint
16°C / 61°F 15°C / 59°F
Humidity Altimeter Pressure
94% 30.1" Hg 1019 hPa